KDAY/DAY METAR and TAF weather

Enter ICAO airport designator
Station Type Date Time Source
KDAY METAR 2018/04/21 10:56 UTC NOAA

KDAY 211056Z 10007KT 10SM FEW250 03/M04 A3045 RMK AO2 SLP315 T00281044


Station Type Date Time Source
KDAY Decoded METAR 2018/04/21 10:56 UTC NOAA

COX DAYTON INTERNATIONAL, OH, United States (KDAY) 39-54N 084-13W 305M
Apr 21, 2018 - 06:56 AM EDT / 2018.04.21 1056 UTC
Wind: from the E (100 degrees) at 8 MPH (7 KT):0
Visibility: 10 mile(s):0
Sky conditions: mostly clear
Temperature: 37.0 F (2.8 C)
Dew Point: 24.1 F (-4.4 C)
Relative Humidity: 59%
Pressure (altimeter): 30.45 in. Hg (1031 hPa)
ob: KDAY 211056Z 10007KT 10SM FEW250 03/M04 A3045 RMK AO2 SLP315 T00281044
cycle: 11

Station Type Date Time Source
KDAY TAF 2018/04/21 12:24 UTC NOAA

TAF KDAY 211122Z 2112/2212 08006KT P6SM SCT250
FM211500 10007KT P6SM BKN150


Example: see airport list